Hovedside
METAR-TAF:

METAR-TAF

Lufthavner :

Mount Shasta, California, USA

breddegrad: 41-18-57N, lengdegrad: 122-18-58W, høyde over havet: 1077 m

Gjeldene værobservasjon

Denne rapporten ble laget for 46 minutter siden, klokken 12:56 UTC
Flau vind
Temperatur 2°C
Luftfuktighet 93%
Trykk 1023 hPa
Sikt: 16.1 km
Overskyet i en høyde av 2600 ft

METAR: KMHS 231256Z AUTO 00000KT 10SM OVC026 02/01 A3022 RMK AO2 SLP264 T00220011

Tid: 05:42 (13:42 UTC)


TAF: fraværende

Værobservasjoner og værvarsel for over 4000 flyplasser (METAR- og TAF-rapporter).

Tilgjengelige stasjoner er representert av de røde og gule prikkene på kartet.

Hold musepekeren over prikken for å se navnet på stasjonen.

Klikk så for å se værobservasjoner og -varsler.

For å forandre kartet kan du klikke på den grønne knappen med svart kryss for å zoome inn, på den grønne knappen med strek for å zoome ut, eller på de grønne pilene for å se tilstøtende kart.


METAR-TAF: